sensor_id;sensor_type;location;lat;lon;timestamp;temperature;humidity
4293;DHT22;2160;51.172;6.808;2023-05-01T04:02:49;13.90;99.90
4293;DHT22;2160;51.172;6.808;2023-05-01T04:05:20;14.00;99.90
4293;DHT22;2160;51.172;6.808;2023-05-01T04:07:51;14.00;99.90
4293;DHT22;2160;51.172;6.808;2023-05-01T04:10:18;14.20;99.90
4293;DHT22;2160;51.172;6.808;2023-05-01T04:12:56;14.10;99.90
4293;DHT22;2160;51.172;6.808;2023-05-01T04:15:23;14.00;99.90
4293;DHT22;2160;51.172;6.808;2023-05-01T04:17:51;14.10;99.90
4293;DHT22;2160;51.172;6.808;2023-05-01T04:20:21;14.10;99.90
4293;DHT22;2160;51.172;6.808;2023-05-01T04:22:48;14.10;99.90
4293;DHT22;2160;51.172;6.808;2023-05-01T04:25:16;14.10;99.90
4293;DHT22;2160;51.172;6.808;2023-05-01T04:27:46;14.10;99.90
4293;DHT22;2160;51.172;6.808;2023-05-01T04:30:14;14.10;99.90
4293;DHT22;2160;51.172;6.808;2023-05-01T04:32:41;14.10;99.90
4293;DHT22;2160;51.172;6.808;2023-05-01T04:35:10;14.10;99.90
4293;DHT22;2160;51.172;6.808;2023-05-01T04:37:40;14.10;99.90
4293;DHT22;2160;51.172;6.808;2023-05-01T04:40:09;14.20;99.90
4293;DHT22;2160;51.172;6.808;2023-05-01T04:42:36;14.10;99.90
4293;DHT22;2160;51.172;6.808;2023-05-01T04:45:04;14.10;99.90
4293;DHT22;2160;51.172;6.808;2023-05-01T04:47:35;14.10;99.90
4293;DHT22;2160;51.172;6.808;2023-05-01T04:50:02;14.20;99.90
4293;DHT22;2160;51.172;6.808;2023-05-01T04:52:32;14.20;99.90
4293;DHT22;2160;51.172;6.808;2023-05-01T04:55:01;14.20;99.90
4293;DHT22;2160;51.172;6.808;2023-05-01T04:57:31;14.20;99.90
4293;DHT22;2160;51.172;6.808;2023-05-01T05:00:00;14.20;99.90
4293;DHT22;2160;51.172;6.808;2023-05-01T05:02:29;14.20;99.90
4293;DHT22;2160;51.172;6.808;2023-05-01T05:04:56;14.20;99.90
4293;DHT22;2160;51.172;6.808;2023-05-01T05:07:24;14.30;99.90
4293;DHT22;2160;51.172;6.808;2023-05-01T05:10:24;14.30;99.90
4293;DHT22;2160;51.172;6.808;2023-05-01T05:13:07;14.30;99.90
4293;DHT22;2160;51.172;6.808;2023-05-01T05:15:34;14.30;99.90
4293;DHT22;2160;51.172;6.808;2023-05-01T05:18:02;14.40;99.90
4293;DHT22;2160;51.172;6.808;2023-05-01T05:20:31;14.40;99.90
4293;DHT22;2160;51.172;6.808;2023-05-01T05:22:58;14.50;99.90
4293;DHT22;2160;51.172;6.808;2023-05-01T05:25:26;14.70;99.90
4293;DHT22;2160;51.172;6.808;2023-05-01T05:27:53;14.50;99.90
4293;DHT22;2160;51.172;6.808;2023-05-01T05:30:20;14.50;99.90
4293;DHT22;2160;51.172;6.808;2023-05-01T05:32:47;14.60;99.90
4293;DHT22;2160;51.172;6.808;2023-05-01T05:35:15;14.60;99.90
4293;DHT22;2160;51.172;6.808;2023-05-01T05:37:42;14.60;99.90
4293;DHT22;2160;51.172;6.808;2023-05-01T05:40:10;14.60;99.90
4293;DHT22;2160;51.172;6.808;2023-05-01T05:42:47;14.70;99.90
4293;DHT22;2160;51.172;6.808;2023-05-01T05:45:14;14.70;99.90
4293;DHT22;2160;51.172;6.808;2023-05-01T05:47:41;14.70;99.90
4293;DHT22;2160;51.172;6.808;2023-05-01T05:50:09;14.80;99.90
4293;DHT22;2160;51.172;6.808;2023-05-01T05:52:37;14.90;99.90
4293;DHT22;2160;51.172;6.808;2023-05-01T05:55:05;14.90;99.90
4293;DHT22;2160;51.172;6.808;2023-05-01T05:57:32;15.00;99.90
4293;DHT22;2160;51.172;6.808;2023-05-01T06:00:06;15.00;99.90
4293;DHT22;2160;51.172;6.808;2023-05-01T06:02:46;15.00;99.90
4293;DHT22;2160;51.172;6.808;2023-05-01T06:05:13;15.00;99.90
4293;DHT22;2160;51.172;6.808;2023-05-01T06:07:40;14.90;99.90
4293;DHT22;2160;51.172;6.808;2023-05-01T06:10:08;15.00;99.90
4293;DHT22;2160;51.172;6.808;2023-05-01T06:12:36;15.10;99.90
4293;DHT22;2160;51.172;6.808;2023-05-01T06:15:06;15.20;99.90
4293;DHT22;2160;51.172;6.808;2023-05-01T06:17:38;15.30;99.90
4293;DHT22;2160;51.172;6.808;2023-05-01T06:20:06;15.30;99.90
4293;DHT22;2160;51.172;6.808;2023-05-01T06:22:35;15.40;99.90
4293;DHT22;2160;51.172;6.808;2023-05-01T06:25:10;15.40;99.90
4293;DHT22;2160;51.172;6.808;2023-05-01T06:27:38;15.50;99.90
4293;DHT22;2160;51.172;6.808;2023-05-01T06:30:08;15.50;99.90
4293;DHT22;2160;51.172;6.808;2023-05-01T06:32:38;15.60;99.90
4293;DHT22;2160;51.172;6.808;2023-05-01T06:35:07;15.70;99.90
4293;DHT22;2160;51.172;6.808;2023-05-01T06:37:34;15.60;99.90
4293;DHT22;2160;51.172;6.808;2023-05-01T06:40:06;15.70;99.90
4293;DHT22;2160;51.172;6.808;2023-05-01T06:42:33;15.70;99.90
4293;DHT22;2160;51.172;6.808;2023-05-01T06:45:01;15.70;99.90
4293;DHT22;2160;51.172;6.808;2023-05-01T06:47:29;15.80;99.90
4293;DHT22;2160;51.172;6.808;2023-05-01T06:49:56;15.80;99.90
4293;DHT22;2160;51.172;6.808;2023-05-01T06:52:23;15.70;99.90
4293;DHT22;2160;51.172;6.808;2023-05-01T06:54:51;15.80;99.90
4293;DHT22;2160;51.172;6.808;2023-05-01T06:57:18;15.80;99.90
4293;DHT22;2160;51.172;6.808;2023-05-01T06:59:45;15.90;99.90
4293;DHT22;2160;51.172;6.808;2023-05-01T07:02:12;16.00;99.90
4293;DHT22;2160;51.172;6.808;2023-05-01T07:04:41;16.10;99.90
4293;DHT22;2160;51.172;6.808;2023-05-01T07:07:09;16.10;99.90
4293;DHT22;2160;51.172;6.808;2023-05-01T07:09:36;16.10;99.90
4293;DHT22;2160;51.172;6.808;2023-05-01T07:12:04;16.00;99.90
4293;DHT22;2160;51.172;6.808;2023-05-01T07:14:31;16.10;99.90
4293;DHT22;2160;51.172;6.808;2023-05-01T07:16:58;16.30;99.90
4293;DHT22;2160;51.172;6.808;2023-05-01T07:19:25;16.40;99.90
4293;DHT22;2160;51.172;6.808;2023-05-01T07:21:53;16.40;99.90
4293;DHT22;2160;51.172;6.808;2023-05-01T07:24:20;16.50;99.90
4293;DHT22;2160;51.172;6.808;2023-05-01T07:26:47;16.50;99.90
4293;DHT22;2160;51.172;6.808;2023-05-01T07:29:14;16.50;99.90
4293;DHT22;2160;51.172;6.808;2023-05-01T07:31:42;16.40;99.90
4293;DHT22;2160;51.172;6.808;2023-05-01T07:34:09;16.40;99.90
4293;DHT22;2160;51.172;6.808;2023-05-01T07:36:36;16.30;99.90
4293;DHT22;2160;51.172;6.808;2023-05-01T07:39:04;16.10;99.90
4293;DHT22;2160;51.172;6.808;2023-05-01T07:41:32;16.20;99.90
4293;DHT22;2160;51.172;6.808;2023-05-01T07:43:59;16.30;99.90
4293;DHT22;2160;51.172;6.808;2023-05-01T07:46:26;16.40;99.90
4293;DHT22;2160;51.172;6.808;2023-05-01T07:48:53;16.60;99.90
4293;DHT22;2160;51.172;6.808;2023-05-01T07:51:22;16.80;99.90
4293;DHT22;2160;51.172;6.808;2023-05-01T07:53:49;16.90;99.90
4293;DHT22;2160;51.172;6.808;2023-05-01T07:56:18;16.90;99.90
4293;DHT22;2160;51.172;6.808;2023-05-01T07:58:46;16.90;99.90
4293;DHT22;2160;51.172;6.808;2023-05-01T08:01:13;17.00;99.90
4293;DHT22;2160;51.172;6.808;2023-05-01T08:03:40;17.10;99.90
4293;DHT22;2160;51.172;6.808;2023-05-01T08:06:08;17.00;99.90
4293;DHT22;2160;51.172;6.808;2023-05-01T08:08:35;17.10;99.90
4293;DHT22;2160;51.172;6.808;2023-05-01T08:11:02;17.10;99.90
4293;DHT22;2160;51.172;6.808;2023-05-01T08:13:31;17.10;99.90
4293;DHT22;2160;51.172;6.808;2023-05-01T08:16:02;17.30;99.90
4293;DHT22;2160;51.172;6.808;2023-05-01T08:18:30;17.50;99.90
4293;DHT22;2160;51.172;6.808;2023-05-01T08:21:00;17.50;99.90
4293;DHT22;2160;51.172;6.808;2023-05-01T08:23:27;17.40;99.90
4293;DHT22;2160;51.172;6.808;2023-05-01T08:25:54;17.50;99.90
4293;DHT22;2160;51.172;6.808;2023-05-01T08:28:22;17.40;99.90
4293;DHT22;2160;51.172;6.808;2023-05-01T08:30:50;17.50;99.90
4293;DHT22;2160;51.172;6.808;2023-05-01T08:33:18;17.60;99.90
4293;DHT22;2160;51.172;6.808;2023-05-01T08:35:45;17.60;99.90
4293;DHT22;2160;51.172;6.808;2023-05-01T08:38:13;17.90;99.90
4293;DHT22;2160;51.172;6.808;2023-05-01T08:40:46;18.20;99.90
4293;DHT22;2160;51.172;6.808;2023-05-01T08:43:14;18.40;99.90
4293;DHT22;2160;51.172;6.808;2023-05-01T08:45:41;18.40;99.90
4293;DHT22;2160;51.172;6.808;2023-05-01T08:48:15;18.10;99.90
4293;DHT22;2160;51.172;6.808;2023-05-01T08:50:46;17.80;99.90
4293;DHT22;2160;51.172;6.808;2023-05-01T08:53:15;17.80;99.90
4293;DHT22;2160;51.172;6.808;2023-05-01T08:55:44;18.10;99.90
4293;DHT22;2160;51.172;6.808;2023-05-01T08:58:13;18.00;99.90
4293;DHT22;2160;51.172;6.808;2023-05-01T09:00:44;18.20;99.90
4293;DHT22;2160;51.172;6.808;2023-05-01T09:03:12;18.10;99.90
4293;DHT22;2160;51.172;6.808;2023-05-01T09:05:41;18.20;99.90
4293;DHT22;2160;51.172;6.808;2023-05-01T09:08:09;18.40;99.90
4293;DHT22;2160;51.172;6.808;2023-05-01T09:10:44;18.30;99.90
4293;DHT22;2160;51.172;6.808;2023-05-01T09:13:31;18.40;99.90
4293;DHT22;2160;51.172;6.808;2023-05-01T09:16:15;18.80;99.90
4293;DHT22;2160;51.172;6.808;2023-05-01T09:19:34;18.90;99.90
4293;DHT22;2160;51.172;6.808;2023-05-01T09:22:27;19.30;99.90
4293;DHT22;2160;51.172;6.808;2023-05-01T09:25:13;18.90;99.90
4293;DHT22;2160;51.172;6.808;2023-05-01T09:27:49;19.10;99.90
4293;DHT22;2160;51.172;6.808;2023-05-01T09:30:36;19.00;99.90
4293;DHT22;2160;51.172;6.808;2023-05-01T09:33:16;19.30;99.90
4293;DHT22;2160;51.172;6.808;2023-05-01T09:35:52;19.30;99.90
4293;DHT22;2160;51.172;6.808;2023-05-01T09:38:20;19.60;99.90
4293;DHT22;2160;51.172;6.808;2023-05-01T09:40:48;19.70;99.90
4293;DHT22;2160;51.172;6.808;2023-05-01T09:43:23;19.90;99.90
4293;DHT22;2160;51.172;6.808;2023-05-01T09:46:04;19.90;99.90
4293;DHT22;2160;51.172;6.808;2023-05-01T09:48:34;19.90;99.90
4293;DHT22;2160;51.172;6.808;2023-05-01T09:51:19;20.00;99.90
4293;DHT22;2160;51.172;6.808;2023-05-01T09:53:48;20.10;99.90
4293;DHT22;2160;51.172;6.808;2023-05-01T09:56:16;20.20;99.90
4293;DHT22;2160;51.172;6.808;2023-05-01T09:58:44;20.20;99.90
4293;DHT22;2160;51.172;6.808;2023-05-01T10:01:11;20.40;99.00
4293;DHT22;2160;51.172;6.808;2023-05-01T10:03:38;20.40;99.90
4293;DHT22;2160;51.172;6.808;2023-05-01T10:06:09;20.20;99.90
4293;DHT22;2160;51.172;6.808;2023-05-01T10:08:50;20.10;99.90
4293;DHT22;2160;51.172;6.808;2023-05-01T10:11:19;20.00;99.90
4293;DHT22;2160;51.172;6.808;2023-05-01T10:14:07;20.00;99.90
4293;DHT22;2160;51.172;6.808;2023-05-01T10:16:36;20.10;99.90
4293;DHT22;2160;51.172;6.808;2023-05-01T10:19:06;20.30;99.90
4293;DHT22;2160;51.172;6.808;2023-05-01T10:21:34;20.70;99.90
4293;DHT22;2160;51.172;6.808;2023-05-01T10:24:03;20.90;99.90
4293;DHT22;2160;51.172;6.808;2023-05-01T10:26:33;20.90;99.90
4293;DHT22;2160;51.172;6.808;2023-05-01T10:29:01;20.90;99.90
4293;DHT22;2160;51.172;6.808;2023-05-01T10:31:32;20.90;99.90
4293;DHT22;2160;51.172;6.808;2023-05-01T10:34:05;20.80;99.90
4293;DHT22;2160;51.172;6.808;2023-05-01T10:36:59;21.10;99.90
4293;DHT22;2160;51.172;6.808;2023-05-01T10:39:31;21.20;99.90
4293;DHT22;2160;51.172;6.808;2023-05-01T10:42:04;21.20;99.90
4293;DHT22;2160;51.172;6.808;2023-05-01T10:44:36;21.30;99.60
4293;DHT22;2160;51.172;6.808;2023-05-01T10:50:09;21.80;95.70
4293;DHT22;2160;51.172;6.808;2023-05-01T10:53:16;21.60;99.90
4293;DHT22;2160;51.172;6.808;2023-05-01T10:55:46;21.40;99.50
4293;DHT22;2160;51.172;6.808;2023-05-01T11:01:30;21.50;98.20
4293;DHT22;2160;51.172;6.808;2023-05-01T11:03:59;21.80;97.90
4293;DHT22;2160;51.172;6.808;2023-05-01T11:06:31;21.80;95.50
4293;DHT22;2160;51.172;6.808;2023-05-01T11:09:34;22.00;96.40
4293;DHT22;2160;51.172;6.808;2023-05-01T11:12:06;22.10;94.80
4293;DHT22;2160;51.172;6.808;2023-05-01T11:15:04;22.30;95.50
4293;DHT22;2160;51.172;6.808;2023-05-01T11:17:45;22.60;95.50
4293;DHT22;2160;51.172;6.808;2023-05-01T11:20:46;22.60;92.40
4293;DHT22;2160;51.172;6.808;2023-05-01T11:23:18;22.80;92.30
4293;DHT22;2160;51.172;6.808;2023-05-01T11:25:47;22.90;92.60
4293;DHT22;2160;51.172;6.808;2023-05-01T11:28:23;22.80;93.20
4293;DHT22;2160;51.172;6.808;2023-05-01T11:30:50;22.90;91.90
4293;DHT22;2160;51.172;6.808;2023-05-01T11:33:22;22.90;88.10
4293;DHT22;2160;51.172;6.808;2023-05-01T11:36:10;23.00;90.20
4293;DHT22;2160;51.172;6.808;2023-05-01T11:39:02;22.90;87.10
4293;DHT22;2160;51.172;6.808;2023-05-01T11:41:49;23.30;91.20
4293;DHT22;2160;51.172;6.808;2023-05-01T11:47:43;23.30;90.70
4293;DHT22;2160;51.172;6.808;2023-05-01T11:50:30;23.30;84.20
4293;DHT22;2160;51.172;6.808;2023-05-01T11:53:09;23.40;89.20
4293;DHT22;2160;51.172;6.808;2023-05-01T11:55:42;23.40;87.90
4293;DHT22;2160;51.172;6.808;2023-05-01T11:58:32;23.70;90.90
4293;DHT22;2160;51.172;6.808;2023-05-01T12:01:15;23.90;88.20
4293;DHT22;2160;51.172;6.808;2023-05-01T12:03:43;23.80;87.50
4293;DHT22;2160;51.172;6.808;2023-05-01T12:06:11;23.90;82.60
4293;DHT22;2160;51.172;6.808;2023-05-01T12:08:46;24.00;78.00
4293;DHT22;2160;51.172;6.808;2023-05-01T12:11:19;24.10;78.50
4293;DHT22;2160;51.172;6.808;2023-05-01T12:13:52;24.20;80.50
4293;DHT22;2160;51.172;6.808;2023-05-01T12:16:21;24.40;82.30
4293;DHT22;2160;51.172;6.808;2023-05-01T12:18:48;24.40;79.90
4293;DHT22;2160;51.172;6.808;2023-05-01T12:21:18;24.20;76.20
4293;DHT22;2160;51.172;6.808;2023-05-01T12:23:51;24.30;71.50
4293;DHT22;2160;51.172;6.808;2023-05-01T12:26:24;24.30;73.90
4293;DHT22;2160;51.172;6.808;2023-05-01T12:29:00;24.20;71.20
4293;DHT22;2160;51.172;6.808;2023-05-01T12:31:36;24.50;74.50
4293;DHT22;2160;51.172;6.808;2023-05-01T12:34:05;24.20;64.30
4293;DHT22;2160;51.172;6.808;2023-05-01T12:36:33;23.80;71.90
4293;DHT22;2160;51.172;6.808;2023-05-01T12:39:02;23.60;73.00
4293;DHT22;2160;51.172;6.808;2023-05-01T12:41:35;23.70;67.00
4293;DHT22;2160;51.172;6.808;2023-05-01T12:44:13;23.80;65.10
4293;DHT22;2160;51.172;6.808;2023-05-01T12:46:54;24.00;62.10
4293;DHT22;2160;51.172;6.808;2023-05-01T12:49:25;24.10;65.60
4293;DHT22;2160;51.172;6.808;2023-05-01T12:51:53;24.20;62.30
4293;DHT22;2160;51.172;6.808;2023-05-01T12:54:21;24.20;61.80
4293;DHT22;2160;51.172;6.808;2023-05-01T12:56:49;23.90;59.80
4293;DHT22;2160;51.172;6.808;2023-05-01T12:59:21;23.90;61.70
4293;DHT22;2160;51.172;6.808;2023-05-01T13:01:57;23.90;61.60
4293;DHT22;2160;51.172;6.808;2023-05-01T13:04:26;23.70;64.90
4293;DHT22;2160;51.172;6.808;2023-05-01T13:06:55;23.70;66.70
4293;DHT22;2160;51.172;6.808;2023-05-01T13:09:22;23.60;61.30
4293;DHT22;2160;51.172;6.808;2023-05-01T13:11:58;23.50;62.80
4293;DHT22;2160;51.172;6.808;2023-05-01T13:14:28;23.20;69.50
4293;DHT22;2160;51.172;6.808;2023-05-01T13:16:57;22.70;73.70
4293;DHT22;2160;51.172;6.808;2023-05-01T13:19:25;21.90;72.00
4293;DHT22;2160;51.172;6.808;2023-05-01T13:21:53;21.50;75.50
4293;DHT22;2160;51.172;6.808;2023-05-01T13:24:21;21.30;76.80
4293;DHT22;2160;51.172;6.808;2023-05-01T13:26:55;21.10;78.70
4293;DHT22;2160;51.172;6.808;2023-05-01T13:29:26;21.00;79.50
4293;DHT22;2160;51.172;6.808;2023-05-01T13:31:54;20.80;80.70
4293;DHT22;2160;51.172;6.808;2023-05-01T13:34:27;20.90;81.20
4293;DHT22;2160;51.172;6.808;2023-05-01T13:36:56;21.00;80.00
4293;DHT22;2160;51.172;6.808;2023-05-01T13:39:23;20.90;83.50
4293;DHT22;2160;51.172;6.808;2023-05-01T13:41:51;20.80;83.30
4293;DHT22;2160;51.172;6.808;2023-05-01T13:44:19;20.70;85.90
4293;DHT22;2160;51.172;6.808;2023-05-01T13:46:47;20.60;85.10
4293;DHT22;2160;51.172;6.808;2023-05-01T13:49:18;20.60;84.70
4293;DHT22;2160;51.172;6.808;2023-05-01T13:51:47;20.60;80.70
4293;DHT22;2160;51.172;6.808;2023-05-01T13:54:14;20.80;84.20
4293;DHT22;2160;51.172;6.808;2023-05-01T13:56:42;20.90;85.10
4293;DHT22;2160;51.172;6.808;2023-05-01T13:59:09;20.90;88.60
4293;DHT22;2160;51.172;6.808;2023-05-01T14:01:39;20.80;88.80
4293;DHT22;2160;51.172;6.808;2023-05-01T14:04:14;21.10;88.40
4293;DHT22;2160;51.172;6.808;2023-05-01T14:06:43;21.40;84.00
4293;DHT22;2160;51.172;6.808;2023-05-01T14:09:14;21.60;83.10
4293;DHT22;2160;51.172;6.808;2023-05-01T14:11:43;21.50;81.50
4293;DHT22;2160;51.172;6.808;2023-05-01T14:14:11;21.80;83.80
4293;DHT22;2160;51.172;6.808;2023-05-01T14:16:41;21.70;80.00
4293;DHT22;2160;51.172;6.808;2023-05-01T14:19:14;21.40;76.90
4293;DHT22;2160;51.172;6.808;2023-05-01T14:21:41;21.30;77.10
4293;DHT22;2160;51.172;6.808;2023-05-01T14:24:09;21.40;78.70
4293;DHT22;2160;51.172;6.808;2023-05-01T14:26:38;21.60;79.20
4293;DHT22;2160;51.172;6.808;2023-05-01T14:29:15;21.70;76.60
4293;DHT22;2160;51.172;6.808;2023-05-01T14:31:47;21.90;74.00
4293;DHT22;2160;51.172;6.808;2023-05-01T14:34:16;22.00;74.30
4293;DHT22;2160;51.172;6.808;2023-05-01T14:36:43;22.20;76.00
4293;DHT22;2160;51.172;6.808;2023-05-01T14:39:11;22.20;76.60
4293;DHT22;2160;51.172;6.808;2023-05-01T14:41:42;21.90;74.10
4293;DHT22;2160;51.172;6.808;2023-05-01T14:44:10;21.10;75.10
4293;DHT22;2160;51.172;6.808;2023-05-01T14:46:44;20.50;76.30
4293;DHT22;2160;51.172;6.808;2023-05-01T14:49:17;20.30;78.60
4293;DHT22;2160;51.172;6.808;2023-05-01T14:51:45;20.00;79.00
4293;DHT22;2160;51.172;6.808;2023-05-01T14:54:12;19.90;82.20
4293;DHT22;2160;51.172;6.808;2023-05-01T14:56:42;19.90;82.60
4293;DHT22;2160;51.172;6.808;2023-05-01T14:59:09;19.80;85.40
4293;DHT22;2160;51.172;6.808;2023-05-01T15:01:37;19.70;84.10
4293;DHT22;2160;51.172;6.808;2023-05-01T15:04:04;19.40;84.40
4293;DHT22;2160;51.172;6.808;2023-05-01T15:06:38;19.40;86.40
4293;DHT22;2160;51.172;6.808;2023-05-01T15:09:05;19.30;87.80
4293;DHT22;2160;51.172;6.808;2023-05-01T15:11:32;19.20;89.10
4293;DHT22;2160;51.172;6.808;2023-05-01T15:14:01;19.30;90.60
4293;DHT22;2160;51.172;6.808;2023-05-01T15:16:28;19.30;91.50
4293;DHT22;2160;51.172;6.808;2023-05-01T15:18:57;19.40;91.80
4293;DHT22;2160;51.172;6.808;2023-05-01T15:21:24;19.40;92.00
4293;DHT22;2160;51.172;6.808;2023-05-01T15:23:51;19.40;94.00
4293;DHT22;2160;51.172;6.808;2023-05-01T15:26:18;19.60;95.80
4293;DHT22;2160;51.172;6.808;2023-05-01T15:28:45;19.80;96.20
4293;DHT22;2160;51.172;6.808;2023-05-01T15:31:13;19.80;96.60
4293;DHT22;2160;51.172;6.808;2023-05-01T15:33:40;19.70;98.80
4293;DHT22;2160;51.172;6.808;2023-05-01T15:36:07;19.50;99.90
4293;DHT22;2160;51.172;6.808;2023-05-01T15:38:34;19.60;99.90
4293;DHT22;2160;51.172;6.808;2023-05-01T15:41:01;19.80;99.90
4293;DHT22;2160;51.172;6.808;2023-05-01T15:43:29;20.00;99.90
4293;DHT22;2160;51.172;6.808;2023-05-01T15:45:56;20.10;99.90
4293;DHT22;2160;51.172;6.808;2023-05-01T15:48:25;20.30;99.90
4293;DHT22;2160;51.172;6.808;2023-05-01T15:50:52;20.20;99.90
4293;DHT22;2160;51.172;6.808;2023-05-01T15:53:19;20.20;99.90
4293;DHT22;2160;51.172;6.808;2023-05-01T15:55:47;20.10;99.90
4293;DHT22;2160;51.172;6.808;2023-05-01T15:58:14;19.90;99.90
4293;DHT22;2160;51.172;6.808;2023-05-01T16:00:42;19.80;99.90
4293;DHT22;2160;51.172;6.808;2023-05-01T16:03:10;19.80;99.90
4293;DHT22;2160;51.172;6.808;2023-05-01T16:05:39;19.90;99.90
4293;DHT22;2160;51.172;6.808;2023-05-01T16:08:06;19.90;99.90
4293;DHT22;2160;51.172;6.808;2023-05-01T16:10:33;19.70;99.90
4293;DHT22;2160;51.172;6.808;2023-05-01T16:13:02;19.40;99.90
4293;DHT22;2160;51.172;6.808;2023-05-01T16:15:30;19.20;99.90
4293;DHT22;2160;51.172;6.808;2023-05-01T16:17:58;19.10;99.90
4293;DHT22;2160;51.172;6.808;2023-05-01T16:20:26;19.00;99.90
4293;DHT22;2160;51.172;6.808;2023-05-01T16:22:55;18.90;99.90
4293;DHT22;2160;51.172;6.808;2023-05-01T16:25:22;18.80;99.90
4293;DHT22;2160;51.172;6.808;2023-05-01T16:27:49;18.90;99.90
4293;DHT22;2160;51.172;6.808;2023-05-01T16:30:16;18.90;99.90
4293;DHT22;2160;51.172;6.808;2023-05-01T16:32:43;18.90;99.90
4293;DHT22;2160;51.172;6.808;2023-05-01T16:35:13;19.00;99.90
4293;DHT22;2160;51.172;6.808;2023-05-01T16:37:42;19.10;99.90
4293;DHT22;2160;51.172;6.808;2023-05-01T16:40:14;19.20;99.90
4293;DHT22;2160;51.172;6.808;2023-05-01T16:42:41;19.20;99.90
4293;DHT22;2160;51.172;6.808;2023-05-01T16:45:09;19.30;99.90
4293;DHT22;2160;51.172;6.808;2023-05-01T16:47:37;19.40;99.90
4293;DHT22;2160;51.172;6.808;2023-05-01T16:50:07;19.40;99.90
4293;DHT22;2160;51.172;6.808;2023-05-01T16:52:35;19.00;99.90
4293;DHT22;2160;51.172;6.808;2023-05-01T16:55:04;19.00;99.90
4293;DHT22;2160;51.172;6.808;2023-05-01T16:57:33;19.00;99.90
4293;DHT22;2160;51.172;6.808;2023-05-01T17:00:00;19.10;99.90
4293;DHT22;2160;51.172;6.808;2023-05-01T17:02:29;19.10;99.90
4293;DHT22;2160;51.172;6.808;2023-05-01T17:04:55;19.20;99.90
4293;DHT22;2160;51.172;6.808;2023-05-01T17:07:22;19.20;99.90
4293;DHT22;2160;51.172;6.808;2023-05-01T17:09:50;18.90;99.90
4293;DHT22;2160;51.172;6.808;2023-05-01T17:12:17;19.10;99.90
4293;DHT22;2160;51.172;6.808;2023-05-01T17:14:45;19.20;99.90
4293;DHT22;2160;51.172;6.808;2023-05-01T17:17:13;19.10;99.90
4293;DHT22;2160;51.172;6.808;2023-05-01T17:19:42;19.10;99.90
4293;DHT22;2160;51.172;6.808;2023-05-01T17:22:09;19.00;99.90
4293;DHT22;2160;51.172;6.808;2023-05-01T17:24:36;19.00;99.90
4293;DHT22;2160;51.172;6.808;2023-05-01T17:27:03;19.00;99.90
4293;DHT22;2160;51.172;6.808;2023-05-01T17:29:31;19.20;99.90
4293;DHT22;2160;51.172;6.808;2023-05-01T17:31:59;19.30;99.90
4293;DHT22;2160;51.172;6.808;2023-05-01T17:34:26;19.30;99.90
4293;DHT22;2160;51.172;6.808;2023-05-01T17:36:53;19.00;99.90
4293;DHT22;2160;51.172;6.808;2023-05-01T17:39:22;18.90;99.90
4293;DHT22;2160;51.172;6.808;2023-05-01T17:41:51;18.80;99.90
4293;DHT22;2160;51.172;6.808;2023-05-01T17:44:19;18.80;99.90
4293;DHT22;2160;51.172;6.808;2023-05-01T17:46:46;18.60;99.90
4293;DHT22;2160;51.172;6.808;2023-05-01T17:49:15;18.80;99.90
4293;DHT22;2160;51.172;6.808;2023-05-01T17:51:42;18.80;99.90
4293;DHT22;2160;51.172;6.808;2023-05-01T17:54:10;19.00;99.90
4293;DHT22;2160;51.172;6.808;2023-05-01T17:56:37;18.70;99.90
4293;DHT22;2160;51.172;6.808;2023-05-01T17:59:04;18.60;99.90
4293;DHT22;2160;51.172;6.808;2023-05-01T18:01:31;18.60;99.90
4293;DHT22;2160;51.172;6.808;2023-05-01T18:03:59;18.60;99.90
4293;DHT22;2160;51.172;6.808;2023-05-01T18:06:27;18.60;99.90
4293;DHT22;2160;51.172;6.808;2023-05-01T18:08:54;18.60;99.90
4293;DHT22;2160;51.172;6.808;2023-05-01T18:11:21;18.50;99.90
4293;DHT22;2160;51.172;6.808;2023-05-01T18:13:49;18.30;99.90
4293;DHT22;2160;51.172;6.808;2023-05-01T18:16:16;18.40;99.90
4293;DHT22;2160;51.172;6.808;2023-05-01T18:18:44;18.50;99.90
4293;DHT22;2160;51.172;6.808;2023-05-01T18:21:11;18.50;99.90
4293;DHT22;2160;51.172;6.808;2023-05-01T18:23:40;18.30;99.90
4293;DHT22;2160;51.172;6.808;2023-05-01T18:26:08;18.40;99.90
4293;DHT22;2160;51.172;6.808;2023-05-01T18:28:36;18.30;99.90
4293;DHT22;2160;51.172;6.808;2023-05-01T18:31:04;18.30;99.90
4293;DHT22;2160;51.172;6.808;2023-05-01T18:33:31;18.10;99.90
4293;DHT22;2160;51.172;6.808;2023-05-01T18:35:58;18.10;99.90
4293;DHT22;2160;51.172;6.808;2023-05-01T18:38:25;18.00;99.90
4293;DHT22;2160;51.172;6.808;2023-05-01T18:40:54;18.00;99.90
4293;DHT22;2160;51.172;6.808;2023-05-01T18:43:21;18.00;99.90
4293;DHT22;2160;51.172;6.808;2023-05-01T18:45:48;17.90;99.90
4293;DHT22;2160;51.172;6.808;2023-05-01T18:48:15;18.00;99.90
4293;DHT22;2160;51.172;6.808;2023-05-01T18:50:42;17.90;99.90
4293;DHT22;2160;51.172;6.808;2023-05-01T18:53:11;17.80;99.90
4293;DHT22;2160;51.172;6.808;2023-05-01T18:55:38;17.70;99.90
4293;DHT22;2160;51.172;6.808;2023-05-01T18:58:06;17.60;99.90
4293;DHT22;2160;51.172;6.808;2023-05-01T19:00:33;17.60;99.90
4293;DHT22;2160;51.172;6.808;2023-05-01T19:03:00;17.60;99.90
4293;DHT22;2160;51.172;6.808;2023-05-01T19:05:27;17.50;99.90
4293;DHT22;2160;51.172;6.808;2023-05-01T19:07:54;17.50;99.90
4293;DHT22;2160;51.172;6.808;2023-05-01T19:10:26;17.60;99.90
4293;DHT22;2160;51.172;6.808;2023-05-01T19:12:53;17.70;99.90
4293;DHT22;2160;51.172;6.808;2023-05-01T19:15:21;17.80;99.90
4293;DHT22;2160;51.172;6.808;2023-05-01T19:17:48;17.80;99.90
4293;DHT22;2160;51.172;6.808;2023-05-01T19:20:16;17.70;99.90
4293;DHT22;2160;51.172;6.808;2023-05-01T19:22:43;17.70;99.90
4293;DHT22;2160;51.172;6.808;2023-05-01T19:25:10;17.70;99.90
4293;DHT22;2160;51.172;6.808;2023-05-01T19:27:37;17.60;99.90
4293;DHT22;2160;51.172;6.808;2023-05-01T19:30:07;17.50;99.90
4293;DHT22;2160;51.172;6.808;2023-05-01T19:32:36;17.50;99.90
4293;DHT22;2160;51.172;6.808;2023-05-01T19:35:04;17.30;99.90
4293;DHT22;2160;51.172;6.808;2023-05-01T19:37:31;17.30;99.90
4293;DHT22;2160;51.172;6.808;2023-05-01T19:39:58;17.20;99.90
4293;DHT22;2160;51.172;6.808;2023-05-01T19:42:25;17.20;99.90
4293;DHT22;2160;51.172;6.808;2023-05-01T19:44:52;17.20;99.90
4293;DHT22;2160;51.172;6.808;2023-05-01T19:47:19;17.10;99.90
4293;DHT22;2160;51.172;6.808;2023-05-01T19:49:47;17.10;99.90
4293;DHT22;2160;51.172;6.808;2023-05-01T19:52:14;17.00;99.90
4293;DHT22;2160;51.172;6.808;2023-05-01T19:54:41;16.90;99.90
4293;DHT22;2160;51.172;6.808;2023-05-01T19:57:09;16.80;99.90
4293;DHT22;2160;51.172;6.808;2023-05-01T19:59:38;16.90;99.90
4293;DHT22;2160;51.172;6.808;2023-05-01T20:02:07;17.00;99.90
4293;DHT22;2160;51.172;6.808;2023-05-01T20:04:34;17.00;99.90
4293;DHT22;2160;51.172;6.808;2023-05-01T20:07:02;17.00;99.90
4293;DHT22;2160;51.172;6.808;2023-05-01T20:09:29;17.00;99.90
4293;DHT22;2160;51.172;6.808;2023-05-01T20:11:56;17.00;99.90
4293;DHT22;2160;51.172;6.808;2023-05-01T20:14:23;16.90;99.90
4293;DHT22;2160;51.172;6.808;2023-05-01T20:16:50;17.00;99.90
4293;DHT22;2160;51.172;6.808;2023-05-01T20:19:17;17.10;99.90
4293;DHT22;2160;51.172;6.808;2023-05-01T20:21:44;17.10;99.90
4293;DHT22;2160;51.172;6.808;2023-05-01T20:24:13;17.10;99.90
4293;DHT22;2160;51.172;6.808;2023-05-01T20:26:40;17.10;99.90
4293;DHT22;2160;51.172;6.808;2023-05-01T20:29:07;17.00;99.90
4293;DHT22;2160;51.172;6.808;2023-05-01T20:31:34;16.90;99.90